Terminal Aerodrome Forecast
Issued by NWS

Current Version | Previous Version | Text Only | Print | Product List | Glossary Off
Versions: 1 2 3 4 5 6 7 8 9 10 11 12 13 14 15 16 17 18 19 20 21

758
FTUS41 KILN 261733
TAFLUK
TAF
KLUK 261733Z 2618/2718 27007KT P6SM FEW019 SCT050 OVC100
     FM262000 27010KT P6SM FEW100 BKN140
     FM270000 23004KT P6SM SKC
     FM271300 24012G18KT P6SM SKC=

USA.gov is the U.S. government's official web portal to all federal, state and local government web resources and services.